Terminal Aerodrome Forecast
Issued by NWS Boston, MA

Home | Current Version | Previous Version | Text Only | Print | Product List | Glossary On
Versions: 1 2 3 4 5 6 7 8 9 10 11 12 13 14 15 16 17 18 19 20 21 22 23 24
000
FTUS41 KBOX 211122
TAFBDL
TAF
KBDL 211122Z 2112/2218 18005KT P6SM FEW250
     FM211400 19008G18KT P6SM SKC
     FM211700 20012G25KT P6SM FEW200
     FM212200 19010G17KT P6SM FEW250
     FM220700 19005KT P6SM SCT250
     FM221000 20004KT P6SM VCSH OVC050
     FM221400 29006KT P6SM BKN050
     FM221700 32011G18KT P6SM SCT040=

USA.gov is the U.S. government's official web portal to all federal, state and local government web resources and services.